Pagrindinis puslapis
METAR-TAF:

METAR-TAF

Oro uostai :

Orenburgas, Rusija

platuma: 51-46-48N, ilguma: 055-07-12E, Aukštis: 109 m

Dabartinis oras

Ataskaita buvo paskelbta 34 minutes, ne 14:00 UTC
Vėjas 17 kt iš Vakarų
Temperatūra 26°C
Drėgmė 30%
Slėgis 1007 hPa
Matomumas 10 km arba daugiau
Išsisklaidę debesys ne aukštis 4000 ft, Liūtiniai kamuoliniai debesys.

METAR: UWOO 311400Z 26009MPS 9999 SCT040CB 26/07 Q1007 R26/65D NOSIG RMK QFE744/0993

Laikas: 19:34 (14:34 UTC)

Prognozė

Ataskaita buvo paskelbta 3 valandos ir 44 minutes, ne 10:50 UTC
Prognozė galioja nuo 31 metu 12 UTC su 01 metu 12 UTC
Vėjas 14 kt iš Vakarų su gūsio iki 23 kt
Matomumas 10 km arba daugiau
Su prošvaistėmis ne aukštis 2000 ft, Liūtiniai kamuoliniai debesys.
Laikinai
nuo 31 metu 12 UTC su 31 metu 15 UTC
Vėjas 16 kt iš Vakarų/Pietvakarių su gūsio iki 33 kt
Laikinai
nuo 31 metu 21 UTC su 01 metu 06 UTC
Vėjas 6 kt iš Vakarų su gūsio iki 17 kt

TAF: UWOO 311050Z 3112/0112 27007G12MPS 9999 BKN020CB TX30/3112Z TN13/0103Z TEMPO 3112/3115 25008G17MPS TEMPO 3121/0106 26003G09MPS

Orai ataskaitas ir orų prognozės (METAR, TAF).

turimą stotys yra geltonos ir raudonos taškus žemėlapyje.

Perkelti pele per norėdami pamatyti stoties vardą.

Tada spustelėkite, norėdami matyti oro stebėjimo ir prognozės.

Norėdami pakeisti žemėlapį: spustelėkite ant žalios mygtukų su juodo kryžiaus žemyn,; žalią mygtuką su brūkšneliu, jei norite nutolinti; arba žalių rodyklių gretimoms žemėlapius.


METAR-TAF: